createdAt,value
2018-06-22T00:02:05.311Z,61.10
2018-06-22T00:04:33.445Z,61.60
2018-06-22T00:07:01.552Z,62.30
2018-06-22T00:09:29.775Z,61.80
2018-06-22T00:11:57.927Z,62.20
2018-06-22T00:14:26.052Z,63.00
2018-06-22T00:16:54.179Z,62.80
2018-06-22T00:19:22.368Z,63.50
2018-06-22T00:21:50.481Z,63.90
2018-06-22T00:24:19.730Z,64.70
2018-06-22T00:26:47.829Z,64.80
2018-06-22T00:29:15.943Z,65.70
2018-06-22T00:31:44.060Z,65.70
2018-06-22T00:34:12.185Z,66.00
2018-06-22T00:36:40.298Z,66.80
2018-06-22T00:39:09.415Z,67.10
2018-06-22T00:41:37.638Z,67.70
2018-06-22T00:44:05.794Z,68.10
2018-06-22T00:46:33.924Z,67.80
2018-06-22T00:49:02.064Z,68.40
2018-06-22T00:51:30.166Z,68.80
2018-06-22T00:54:10.094Z,69.40
2018-06-22T00:56:38.256Z,69.40
2018-06-22T00:59:06.374Z,70.70
2018-06-22T01:01:34.505Z,71.40
2018-06-22T01:04:02.607Z,71.60
2018-06-22T01:06:30.721Z,71.90
2018-06-22T01:08:58.845Z,72.20
2018-06-22T01:11:26.988Z,72.50
2018-06-22T01:13:55.163Z,72.60
2018-06-22T01:16:23.318Z,73.30
2018-06-22T01:18:51.512Z,74.10
2018-06-22T01:21:19.637Z,73.90
2018-06-22T01:23:47.901Z,74.40
2018-06-22T01:26:16.046Z,74.90
2018-06-22T01:28:44.202Z,74.60
2018-06-22T01:31:12.342Z,74.40
2018-06-22T01:33:40.502Z,74.20
2018-06-22T01:36:08.670Z,74.50
2018-06-22T01:38:36.918Z,74.40
2018-06-22T01:41:05.097Z,74.90
2018-06-22T01:43:33.266Z,75.40
2018-06-22T01:46:01.403Z,76.00
2018-06-22T01:48:30.378Z,76.50
2018-06-22T01:50:58.534Z,76.70
2018-06-22T01:53:26.642Z,77.00
2018-06-22T01:58:22.686Z,78.10
2018-06-22T02:00:50.825Z,78.30
2018-06-22T02:03:19.071Z,78.60
2018-06-22T02:05:49.216Z,80.20
2018-06-22T02:08:19.255Z,80.60
2018-06-22T02:10:49.950Z,82.30
2018-06-22T02:13:20.410Z,86.00
2018-06-22T02:15:50.600Z,87.10
2018-06-22T02:18:20.783Z,88.30
2018-06-22T02:20:50.690Z,88.30
2018-06-22T02:23:20.771Z,87.70
2018-06-22T02:25:49.995Z,87.70
2018-06-22T02:28:20.275Z,87.30
2018-06-22T02:30:50.356Z,86.20
2018-06-22T02:33:20.091Z,85.70
2018-06-22T02:35:50.042Z,85.50
2018-06-22T02:38:19.033Z,85.20
2018-06-22T02:40:47.616Z,86.80
2018-06-22T02:43:17.286Z,89.80
2018-06-22T02:45:46.043Z,90.40
2018-06-22T02:48:15.986Z,90.80
2018-06-22T02:50:44.926Z,91.60
2018-06-22T02:53:15.051Z,91.70
2018-06-22T02:55:44.025Z,92.10
2018-06-22T02:58:12.648Z,92.20
2018-06-22T03:00:42.367Z,92.60
2018-06-22T03:03:11.058Z,93.00
2018-06-22T03:05:39.867Z,93.40
2018-06-22T03:08:08.122Z,93.80
2018-06-22T03:10:36.295Z,94.00
2018-06-22T03:13:04.457Z,94.30
2018-06-22T03:15:32.582Z,94.50
2018-06-22T03:18:00.734Z,94.60
2018-06-22T03:20:28.954Z,94.30
2018-06-22T03:22:57.094Z,94.20
2018-06-22T03:25:25.270Z,94.40
2018-06-22T03:27:53.402Z,94.80
2018-06-22T03:30:21.765Z,95.10
2018-06-22T03:32:49.875Z,95.30
2018-06-22T03:35:18.001Z,95.20
2018-06-22T03:37:46.123Z,95.20
2018-06-22T03:40:14.247Z,95.30
2018-06-22T03:42:42.527Z,95.50
2018-06-22T03:45:10.920Z,95.60
2018-06-22T03:47:41.334Z,95.50
2018-06-22T03:50:10.084Z,95.30
2018-06-22T03:52:39.387Z,95.30
2018-06-22T03:55:08.262Z,95.40
2018-06-22T03:57:38.739Z,95.50
2018-06-22T04:00:07.600Z,95.70
2018-06-22T04:02:36.109Z,95.80
2018-06-22T04:05:04.222Z,95.90
2018-06-22T04:07:35.476Z,96.00
2018-06-22T04:10:03.606Z,96.00
2018-06-22T04:12:38.219Z,95.80
2018-06-22T04:15:06.335Z,95.60
2018-06-22T04:17:38.790Z,95.50
2018-06-22T04:20:06.958Z,95.40
2018-06-22T04:22:36.090Z,95.00
2018-06-22T04:25:04.235Z,94.70
2018-06-22T04:27:32.362Z,94.70
2018-06-22T04:30:00.518Z,94.60
2018-06-22T04:32:28.650Z,94.60
2018-06-22T04:34:56.857Z,94.50
2018-06-22T04:37:24.978Z,94.00
2018-06-22T04:39:53.094Z,93.80
2018-06-22T04:42:21.260Z,93.70
2018-06-22T04:44:49.412Z,93.60
2018-06-22T04:47:17.506Z,93.50
2018-06-22T04:49:45.653Z,93.40
2018-06-22T04:52:13.822Z,93.20
2018-06-22T04:54:43.338Z,93.10
2018-06-22T04:57:11.466Z,92.70
2018-06-22T04:59:39.614Z,92.50
2018-06-22T05:02:07.742Z,92.50
2018-06-22T05:04:35.870Z,92.30
2018-06-22T05:07:03.994Z,92.10
2018-06-22T05:09:32.114Z,92.20
2018-06-22T05:12:00.294Z,91.80
2018-06-22T05:14:28.518Z,91.80
2018-06-22T05:16:56.630Z,91.60
2018-06-22T05:19:24.819Z,90.90
2018-06-22T05:21:52.967Z,90.20
2018-06-22T05:24:21.082Z,89.50
2018-06-22T05:26:49.299Z,89.20
2018-06-22T05:29:17.442Z,86.80
2018-06-22T05:31:45.546Z,84.70
2018-06-22T05:34:13.661Z,85.00
2018-06-22T05:36:41.788Z,84.90
2018-06-22T05:39:11.026Z,84.10
2018-06-22T05:41:39.522Z,81.20
2018-06-22T05:44:08.113Z,80.10
2018-06-22T05:46:36.279Z,78.90
2018-06-22T05:49:04.502Z,79.30
2018-06-22T05:51:32.614Z,78.20
2018-06-22T05:54:00.726Z,77.20
2018-06-22T05:56:28.902Z,74.20
2018-06-22T05:58:57.504Z,74.40
2018-06-22T06:03:53.518Z,72.30
2018-06-22T06:06:21.627Z,72.20
2018-06-22T06:08:49.739Z,72.30
2018-06-22T06:11:17.996Z,70.80
2018-06-22T06:13:45.975Z,70.40
2018-06-22T06:16:14.106Z,70.10
2018-06-22T06:18:42.260Z,70.10
2018-06-22T06:21:10.375Z,70.40
2018-06-22T06:23:38.521Z,68.80
2018-06-22T06:28:34.607Z,67.30
2018-06-22T06:31:02.719Z,67.40
2018-06-22T06:33:32.894Z,67.30
2018-06-22T06:36:01.029Z,67.00
2018-06-22T06:38:29.143Z,67.20
2018-06-22T06:40:57.290Z,65.30
2018-06-22T06:43:25.396Z,62.70
2018-06-22T06:45:53.543Z,60.10
2018-06-22T06:48:21.665Z,60.80
2018-06-22T06:50:49.810Z,61.00
2018-06-22T06:53:20.018Z,58.90
2018-06-22T06:55:48.138Z,57.10
2018-06-22T06:58:16.290Z,55.50
2018-06-22T07:00:44.418Z,55.80
2018-06-22T07:03:12.549Z,55.80
2018-06-22T07:05:40.669Z,56.20
2018-06-22T07:08:08.853Z,55.00
2018-06-22T07:10:36.947Z,53.20
2018-06-22T07:13:05.090Z,51.70
2018-06-22T07:15:38.986Z,49.60
2018-06-22T07:18:07.771Z,46.80
2018-06-22T07:20:35.947Z,44.90
2018-06-22T07:23:04.081Z,43.70
2018-06-22T07:25:32.202Z,43.80
2018-06-22T07:28:00.453Z,43.40
2018-06-22T07:30:28.669Z,42.00
2018-06-22T07:32:56.883Z,41.60
2018-06-22T07:35:25.113Z,41.40
2018-06-22T07:37:53.245Z,41.60
2018-06-22T07:40:21.453Z,42.00
2018-06-22T07:42:49.562Z,41.90
2018-06-22T07:45:17.729Z,40.70
2018-06-22T07:47:45.916Z,39.70
2018-06-22T07:50:14.124Z,40.10
2018-06-22T07:52:42.234Z,39.10
2018-06-22T07:55:10.466Z,38.80
2018-06-22T07:57:38.521Z,39.60
2018-06-22T08:00:06.678Z,40.30
2018-06-22T08:02:34.881Z,40.40
2018-06-22T08:05:03.020Z,42.10
2018-06-22T08:07:31.130Z,43.00
2018-06-22T08:09:59.273Z,43.70
2018-06-22T08:12:27.471Z,44.30
2018-06-22T08:14:55.609Z,44.80
2018-06-22T08:17:23.722Z,44.70
2018-06-22T08:19:51.842Z,45.20
2018-06-22T08:22:19.976Z,44.20
2018-06-22T08:24:48.071Z,43.90
2018-06-22T08:27:16.405Z,43.00
2018-06-22T08:29:44.526Z,42.20
2018-06-22T08:32:12.659Z,41.10
2018-06-22T08:34:40.817Z,40.80
2018-06-22T08:37:08.962Z,38.90
2018-06-22T08:39:37.130Z,39.70
2018-06-22T08:42:05.456Z,39.30
2018-06-22T08:44:33.548Z,39.60
2018-06-22T08:47:01.673Z,41.30
2018-06-22T08:49:29.939Z,40.90
2018-06-22T08:51:58.097Z,41.70
2018-06-22T08:54:26.297Z,41.10
2018-06-22T08:56:55.516Z,39.30
2018-06-22T08:59:23.626Z,38.40
2018-06-22T09:01:51.756Z,38.60
2018-06-22T09:04:19.882Z,37.60
2018-06-22T09:06:48.038Z,36.40
2018-06-22T09:09:16.145Z,37.60
2018-06-22T09:11:44.310Z,38.40
2018-06-22T09:14:12.474Z,37.60
2018-06-22T09:16:40.597Z,35.70
2018-06-22T09:19:08.898Z,36.60
2018-06-22T09:21:37.034Z,35.60
2018-06-22T09:24:05.168Z,36.80
2018-06-22T09:26:33.273Z,35.90
2018-06-22T09:29:01.386Z,35.40
2018-06-22T09:31:29.549Z,34.70
2018-06-22T09:33:57.697Z,35.10
2018-06-22T09:36:25.843Z,32.20
2018-06-22T09:38:54.038Z,33.10
2018-06-22T09:41:22.240Z,31.90
2018-06-22T09:46:18.238Z,33.80
2018-06-22T09:48:46.547Z,32.00
2018-06-22T09:51:14.669Z,34.20
2018-06-22T09:53:42.757Z,35.70
2018-06-22T09:56:10.857Z,34.10
2018-06-22T09:58:38.970Z,34.10
2018-06-22T10:01:07.230Z,35.10
2018-06-22T10:03:35.338Z,34.80
2018-06-22T10:06:03.459Z,35.40
2018-06-22T10:08:31.573Z,36.90
2018-06-22T10:10:59.697Z,36.70
2018-06-22T10:13:27.821Z,34.90
2018-06-22T10:15:56.050Z,37.10
2018-06-22T10:18:25.747Z,37.40
2018-06-22T10:20:54.007Z,36.70
2018-06-22T10:23:22.513Z,35.30
2018-06-22T10:25:50.645Z,35.70
2018-06-22T10:28:18.777Z,35.30
2018-06-22T10:30:46.907Z,34.10
2018-06-22T10:33:15.033Z,34.20
2018-06-22T10:35:43.158Z,33.00
2018-06-22T10:38:11.294Z,33.90
2018-06-22T10:40:39.413Z,33.50
2018-06-22T10:43:08.030Z,33.80
2018-06-22T10:48:04.130Z,31.00
2018-06-22T10:50:32.318Z,31.70
2018-06-22T10:53:00.478Z,33.40
2018-06-22T10:55:28.998Z,33.50
2018-06-22T10:57:57.123Z,35.10
2018-06-22T11:00:25.298Z,34.10
2018-06-22T11:02:53.457Z,34.30
2018-06-22T11:05:21.583Z,34.60
2018-06-22T11:07:49.711Z,32.10
2018-06-22T11:10:17.845Z,32.00
2018-06-22T11:12:46.002Z,33.00
2018-06-22T11:15:14.178Z,31.00
2018-06-22T11:17:42.310Z,32.00
2018-06-22T11:20:10.448Z,32.00
2018-06-22T11:22:38.621Z,30.20
2018-06-22T11:25:06.767Z,31.10
2018-06-22T11:27:34.874Z,29.90
2018-06-22T11:30:03.027Z,31.40
2018-06-22T11:32:31.214Z,30.90
2018-06-22T11:35:00.542Z,32.20
2018-06-22T11:37:28.811Z,30.40
2018-06-22T11:39:56.958Z,30.50
2018-06-22T11:42:25.734Z,30.80
2018-06-22T11:44:53.887Z,30.10
2018-06-22T11:47:22.288Z,31.00
2018-06-22T11:49:50.438Z,31.30
2018-06-22T11:52:18.578Z,32.60
2018-06-22T11:54:46.786Z,31.70
2018-06-22T11:57:14.973Z,32.70
2018-06-22T11:59:43.140Z,32.30
2018-06-22T12:02:11.252Z,32.90
2018-06-22T12:04:39.423Z,31.80
2018-06-22T12:07:07.537Z,32.10
2018-06-22T12:09:35.644Z,33.00
2018-06-22T12:12:03.774Z,31.40
2018-06-22T12:14:31.976Z,32.60
2018-06-22T12:17:00.198Z,33.10
2018-06-22T12:19:28.356Z,35.30
2018-06-22T12:21:56.502Z,33.10
2018-06-22T12:24:24.646Z,31.00
2018-06-22T12:26:52.829Z,30.00
2018-06-22T12:29:20.991Z,29.10
2018-06-22T12:31:49.150Z,27.50
2018-06-22T12:34:17.327Z,28.30
2018-06-22T12:36:46.665Z,28.60
2018-06-22T12:39:14.801Z,30.20
2018-06-22T12:41:43.878Z,31.20
2018-06-22T12:44:12.047Z,32.10
2018-06-22T12:46:40.188Z,33.10
2018-06-22T12:49:08.358Z,32.80
2018-06-22T12:51:36.651Z,33.60
2018-06-22T12:54:05.424Z,35.60
2018-06-22T12:56:33.537Z,32.60
2018-06-22T12:59:01.646Z,32.90
2018-06-22T13:01:29.770Z,32.40
2018-06-22T13:03:58.142Z,33.30
2018-06-22T13:06:26.292Z,32.20
2018-06-22T13:08:54.406Z,33.90
2018-06-22T13:11:22.654Z,34.10
2018-06-22T13:13:50.820Z,34.10
2018-06-22T13:16:18.948Z,33.50
2018-06-22T13:18:47.090Z,33.10
2018-06-22T13:21:15.316Z,34.00
2018-06-22T13:26:11.330Z,35.10
2018-06-22T13:28:39.498Z,36.00
2018-06-22T13:31:07.614Z,37.10
2018-06-22T13:33:35.746Z,37.30
2018-06-22T13:36:03.890Z,36.20
2018-06-22T13:38:32.267Z,35.00
2018-06-22T13:41:00.429Z,35.30
2018-06-22T13:43:28.530Z,35.30
2018-06-22T13:45:56.646Z,34.90
2018-06-22T13:48:24.803Z,33.50
2018-06-22T13:50:52.917Z,33.30
2018-06-22T13:53:21.046Z,31.10
2018-06-22T13:55:49.291Z,31.10
2018-06-22T13:58:17.432Z,30.90
2018-06-22T14:03:13.582Z,33.10
2018-06-22T14:05:47.275Z,31.30
2018-06-22T14:08:15.586Z,31.00
2018-06-22T14:10:43.758Z,32.50
2018-06-22T14:13:12.952Z,32.90
2018-06-22T14:15:41.097Z,32.30
2018-06-22T14:18:10.521Z,31.30
2018-06-22T14:20:44.662Z,31.60
2018-06-22T14:23:19.642Z,30.80
2018-06-22T14:25:52.732Z,32.50
2018-06-22T14:28:21.334Z,30.80
2018-06-22T14:30:57.184Z,32.10
2018-06-22T14:33:26.321Z,32.50
2018-06-22T14:35:54.518Z,33.30
2018-06-22T14:38:23.058Z,35.20
2018-06-22T14:40:51.553Z,35.40
2018-06-22T14:43:20.520Z,37.30
2018-06-22T14:45:48.634Z,37.40
2018-06-22T14:48:20.553Z,38.30
2018-06-22T14:50:48.715Z,37.90
2018-06-22T14:53:22.265Z,36.50
2018-06-22T14:55:55.935Z,36.50
2018-06-22T15:03:36.476Z,39.20
2018-06-22T15:06:09.950Z,39.90
2018-06-22T15:08:38.086Z,40.80
2018-06-22T15:11:06.361Z,41.40
2018-06-22T15:13:34.761Z,41.50
2018-06-22T15:16:04.978Z,41.80
2018-06-22T15:18:33.118Z,42.80
2018-06-22T15:21:01.330Z,43.80
2018-06-22T15:25:57.410Z,43.90
2018-06-22T15:28:25.613Z,43.20
2018-06-22T15:30:53.731Z,43.40
2018-06-22T15:36:00.812Z,42.20
2018-06-22T15:38:34.262Z,40.50
2018-06-22T15:41:07.758Z,40.30
2018-06-22T15:43:41.094Z,41.40
2018-06-22T15:46:18.138Z,42.60
2018-06-22T15:48:51.511Z,41.00
2018-06-22T15:51:24.883Z,41.80
2018-06-22T15:53:58.499Z,42.10
2018-06-22T15:56:26.909Z,42.80
2018-06-22T15:58:55.090Z,43.70
2018-06-22T16:01:23.204Z,42.80
2018-06-22T16:03:59.060Z,41.60
2018-06-22T16:06:37.375Z,42.40
2018-06-22T16:09:07.326Z,42.30
2018-06-22T16:11:47.723Z,42.90
2018-06-22T16:14:21.204Z,43.00
2018-06-22T16:16:54.705Z,43.80
2018-06-22T16:19:28.385Z,44.70
2018-06-22T16:22:01.973Z,43.50
2018-06-22T16:24:35.529Z,44.40
2018-06-22T16:27:07.449Z,44.40
2018-06-22T16:29:35.711Z,44.90
2018-06-22T16:32:03.826Z,45.20
2018-06-22T16:34:31.970Z,44.30
2018-06-22T16:39:29.118Z,46.60
2018-06-22T16:41:57.241Z,45.50
2018-06-22T16:44:25.416Z,46.00
2018-06-22T16:46:53.606Z,46.00
2018-06-22T16:49:22.890Z,45.60
2018-06-22T16:51:51.056Z,45.00
2018-06-22T16:54:19.326Z,45.80
2018-06-22T16:56:47.465Z,44.90
2018-06-22T16:59:15.576Z,45.00
2018-06-22T17:01:43.836Z,44.20
2018-06-22T17:04:14.958Z,44.60
2018-06-22T17:06:48.634Z,44.90
2018-06-22T17:09:22.145Z,44.40
2018-06-22T17:11:55.614Z,43.30
2018-06-22T17:14:29.332Z,43.70
2018-06-22T17:17:03.025Z,43.10
2018-06-22T17:19:31.301Z,44.40
2018-06-22T17:21:59.517Z,45.40
2018-06-22T17:24:27.696Z,44.00
2018-06-22T17:26:55.839Z,45.10
2018-06-22T17:29:24.169Z,45.00
2018-06-22T17:31:52.310Z,44.50
2018-06-22T17:34:20.484Z,44.40
2018-06-22T17:36:48.774Z,45.30
2018-06-22T17:39:16.965Z,47.50
2018-06-22T17:41:45.079Z,46.40
2018-06-22T17:44:13.207Z,45.80
2018-06-22T17:46:41.341Z,46.60
2018-06-22T17:49:10.639Z,47.50
2018-06-22T17:51:38.839Z,48.30
2018-06-22T17:54:07.058Z,47.50
2018-06-22T17:56:35.303Z,47.40
2018-06-22T17:59:08.795Z,47.80
2018-06-22T18:01:43.209Z,48.80
2018-06-22T18:04:16.949Z,48.90
2018-06-22T18:06:51.704Z,49.30
2018-06-22T18:09:25.470Z,49.80
2018-06-22T18:11:58.886Z,50.40
2018-06-22T18:14:27.087Z,50.40
2018-06-22T18:16:55.266Z,51.50
2018-06-22T18:19:23.441Z,51.30
2018-06-22T18:21:51.751Z,51.20
2018-06-22T18:24:21.922Z,51.20
2018-06-22T18:26:52.146Z,51.60
2018-06-22T18:29:20.371Z,52.30
2018-06-22T18:31:52.146Z,52.90
2018-06-22T18:34:20.381Z,52.70
2018-06-22T18:36:48.506Z,53.50
2018-06-22T18:39:16.736Z,54.50
2018-06-22T18:41:51.234Z,55.40
2018-06-22T18:44:19.374Z,55.70
2018-06-22T18:46:47.551Z,55.40
2018-06-22T18:49:15.752Z,55.60
2018-06-22T18:51:43.879Z,55.50
2018-06-22T18:54:17.585Z,55.80
2018-06-22T18:56:51.314Z,56.10
2018-06-22T18:59:24.858Z,56.30
2018-06-22T19:01:58.369Z,56.60
2018-06-22T19:04:27.223Z,56.80
2018-06-22T19:06:55.367Z,57.20
2018-06-22T19:09:23.506Z,57.70
2018-06-22T19:11:51.718Z,58.10
2018-06-22T19:14:19.873Z,58.30
2018-06-22T19:16:48.114Z,59.30
2018-06-22T19:19:16.306Z,59.30
2018-06-22T19:21:44.457Z,59.80
2018-06-22T19:24:12.647Z,59.70
2018-06-22T19:26:40.827Z,60.00
2018-06-22T19:29:09.110Z,60.30
2018-06-22T19:31:37.268Z,60.50
2018-06-22T19:34:05.619Z,61.20
2018-06-22T19:36:33.790Z,60.70
2018-06-22T19:39:02.301Z,60.80
2018-06-22T19:41:31.150Z,61.10
2018-06-22T19:44:05.906Z,61.30
2018-06-22T19:46:39.542Z,61.70
2018-06-22T19:49:13.113Z,62.20
2018-06-22T19:51:46.522Z,62.80
2018-06-22T19:54:14.659Z,62.90
2018-06-22T19:56:42.875Z,63.40
2018-06-22T19:59:11.050Z,63.80
2018-06-22T20:01:39.178Z,64.30
2018-06-22T20:04:07.929Z,64.30
2018-06-22T20:06:36.106Z,64.30
2018-06-22T20:09:07.246Z,64.30
2018-06-22T20:11:35.475Z,64.50
2018-06-22T20:16:31.574Z,64.50
2018-06-22T20:18:59.817Z,64.60
2018-06-22T20:21:28.054Z,64.90
2018-06-22T20:23:56.405Z,64.90
2018-06-22T20:26:24.649Z,64.90
2018-06-22T20:28:52.830Z,65.60
2018-06-22T20:31:26.402Z,65.70
2018-06-22T20:33:54.754Z,66.40
2018-06-22T20:38:31.843Z,66.70
2018-06-22T20:41:05.578Z,67.30
2018-06-22T20:43:39.266Z,68.00
2018-06-22T20:46:07.432Z,68.50
2018-06-22T20:48:41.177Z,69.30
2018-06-22T20:51:09.437Z,70.30
2018-06-22T20:53:37.612Z,70.80
2018-06-22T20:56:05.796Z,71.70
2018-06-22T21:01:01.898Z,72.50
2018-06-22T21:03:30.142Z,73.00
2018-06-22T21:05:58.439Z,74.20
2018-06-22T21:08:26.614Z,74.50
2018-06-22T21:10:54.831Z,74.80
2018-06-22T21:13:23.106Z,75.50
2018-06-22T21:15:51.264Z,76.10
2018-06-22T21:18:19.428Z,76.60
2018-06-22T21:20:52.924Z,77.00
2018-06-22T21:23:21.148Z,77.50
2018-06-22T21:25:50.511Z,78.30
2018-06-22T21:28:23.983Z,79.20
2018-06-22T21:30:57.357Z,81.60
2018-06-22T21:33:30.989Z,83.90
2018-06-22T21:36:04.654Z,85.20
2018-06-22T21:38:38.301Z,86.60
2018-06-22T21:41:06.510Z,88.00
2018-06-22T21:43:34.725Z,89.20
2018-06-22T21:46:02.902Z,89.60
2018-06-22T21:48:31.058Z,90.30
2018-06-22T21:50:59.236Z,90.40
2018-06-22T21:53:27.420Z,90.40
2018-06-22T21:55:55.562Z,90.20
2018-06-22T21:58:23.704Z,90.20
2018-06-22T22:00:51.903Z,90.30
2018-06-22T22:03:20.155Z,90.30
2018-06-22T22:05:48.374Z,90.20
2018-06-22T22:08:16.560Z,89.90
2018-06-22T22:10:50.054Z,89.50
2018-06-22T22:13:18.218Z,90.00
2018-06-22T22:15:46.354Z,89.80
2018-06-22T22:18:14.566Z,90.00
2018-06-22T22:20:42.818Z,90.10
2018-06-22T22:23:11.065Z,90.10
2018-06-22T22:25:39.222Z,90.50
2018-06-22T22:28:07.358Z,90.50
2018-06-22T22:30:35.477Z,90.90
2018-06-22T22:33:03.590Z,91.70
2018-06-22T22:35:31.733Z,92.10
2018-06-22T22:37:59.852Z,91.90
2018-06-22T22:40:27.999Z,92.10
2018-06-22T22:42:56.126Z,92.90
2018-06-22T22:45:24.278Z,93.10
2018-06-22T22:47:52.412Z,93.40
2018-06-22T22:50:20.538Z,93.80
2018-06-22T22:52:48.662Z,94.00
2018-06-22T22:55:16.778Z,93.70
2018-06-22T22:57:44.909Z,93.70
2018-06-22T23:00:13.034Z,93.90
2018-06-22T23:02:41.182Z,93.50
2018-06-22T23:05:09.322Z,93.40
2018-06-22T23:07:37.454Z,93.70
2018-06-22T23:10:05.799Z,93.80
2018-06-22T23:12:33.926Z,93.50
2018-06-22T23:15:02.042Z,93.30
2018-06-22T23:17:30.175Z,93.50
2018-06-22T23:19:58.377Z,93.50
2018-06-22T23:22:37.698Z,94.00
2018-06-22T23:25:05.967Z,94.40
2018-06-22T23:27:35.179Z,94.60
2018-06-22T23:30:03.577Z,95.00
2018-06-22T23:32:31.832Z,95.20
2018-06-22T23:35:00.001Z,95.30
2018-06-22T23:37:28.146Z,95.30
2018-06-22T23:39:56.422Z,95.60
2018-06-22T23:42:24.590Z,95.80
2018-06-22T23:44:52.806Z,96.00
2018-06-22T23:47:21.079Z,96.20
2018-06-22T23:49:49.193Z,96.30
2018-06-22T23:52:17.336Z,96.30
2018-06-22T23:54:45.478Z,96.40
2018-06-22T23:57:13.594Z,96.30
2018-06-22T23:59:41.701Z,96.30
